createdAt,value
2024-02-22T00:00:24.583Z,9.72
2024-02-22T00:01:24.613Z,9.67
2024-02-22T00:02:24.456Z,9.68
2024-02-22T00:03:24.335Z,9.67
2024-02-22T00:04:24.328Z,9.72
2024-02-22T00:05:24.213Z,9.70
2024-02-22T00:06:24.107Z,9.71
2024-02-22T00:07:23.985Z,9.67
2024-02-22T00:08:23.931Z,9.72
2024-02-22T00:09:23.819Z,9.65
2024-02-22T00:10:23.733Z,9.68
2024-02-22T00:11:23.765Z,9.78
2024-02-22T00:12:23.564Z,9.68
2024-02-22T00:13:23.484Z,9.68
2024-02-22T00:14:23.399Z,9.71
2024-02-22T00:15:23.308Z,9.67
2024-02-22T00:16:23.229Z,9.71
2024-02-22T00:17:23.344Z,9.70
2024-02-22T00:18:23.120Z,9.71
2024-02-22T00:19:23.089Z,9.78
2024-02-22T00:20:22.959Z,9.71
2024-02-22T00:21:22.808Z,9.74
2024-02-22T00:22:22.715Z,9.74
2024-02-22T00:23:22.633Z,9.70
2024-02-22T00:24:22.551Z,9.74
2024-02-22T00:25:22.466Z,9.71
2024-02-22T00:26:22.452Z,9.79
2024-02-22T00:27:22.318Z,9.71
2024-02-22T00:28:22.213Z,9.79
2024-02-22T00:29:22.129Z,9.72
2024-02-22T00:30:22.433Z,9.82
2024-02-22T00:31:21.968Z,9.67
2024-02-22T00:32:21.875Z,9.83
2024-02-22T00:33:21.794Z,9.79
2024-02-22T00:34:21.773Z,9.85
2024-02-22T00:35:21.696Z,9.75
2024-02-22T00:36:21.546Z,9.72
2024-02-22T00:37:21.459Z,9.82
2024-02-22T00:38:21.492Z,9.88
2024-02-22T00:39:21.299Z,9.82
2024-02-22T00:40:21.350Z,9.80
2024-02-22T00:41:22.832Z,9.85
2024-02-22T00:42:21.025Z,9.86
2024-02-22T00:43:21.014Z,9.82
2024-02-22T00:44:20.997Z,9.88
2024-02-22T00:45:20.774Z,9.89
2024-02-22T00:46:20.692Z,9.90
2024-02-22T00:47:20.634Z,9.83
2024-02-22T00:48:20.652Z,9.88
2024-02-22T00:49:20.630Z,9.88
2024-02-22T00:50:20.460Z,9.88
2024-02-22T00:51:20.267Z,9.96
2024-02-22T00:52:20.193Z,9.90
2024-02-22T00:53:20.130Z,9.92
2024-02-22T00:54:20.012Z,9.93
2024-02-22T00:55:19.927Z,9.92
2024-02-22T00:56:19.911Z,9.98
2024-02-22T00:57:19.834Z,9.96
2024-02-22T00:58:19.682Z,9.89
2024-02-22T00:59:19.626Z,9.96
2024-02-22T01:00:19.505Z,9.92
2024-02-22T01:01:19.474Z,9.90
2024-02-22T01:02:19.479Z,9.89
2024-02-22T01:03:19.246Z,9.96
2024-02-22T01:04:19.208Z,9.92
2024-02-22T01:05:19.272Z,9.90
2024-02-22T01:06:19.085Z,9.93
2024-02-22T01:07:18.923Z,9.92
2024-02-22T01:08:18.870Z,9.92
2024-02-22T01:09:18.999Z,9.93
2024-02-22T01:10:18.667Z,10.00
2024-02-22T01:11:18.659Z,10.01
2024-02-22T01:12:18.497Z,10.00
2024-02-22T01:13:18.410Z,10.03
2024-02-22T01:14:18.384Z,9.93
2024-02-22T01:15:18.262Z,9.93
2024-02-22T01:16:18.164Z,10.03
2024-02-22T01:17:18.153Z,10.00
2024-02-22T01:18:18.036Z,10.00
2024-02-22T01:19:17.973Z,9.90
2024-02-22T01:20:17.856Z,10.00
2024-02-22T01:21:17.733Z,10.06
2024-02-22T01:22:17.647Z,10.01
2024-02-22T01:23:17.626Z,10.04
2024-02-22T01:24:17.495Z,9.98
2024-02-22T01:25:17.416Z,10.03
2024-02-22T01:26:17.421Z,10.08
2024-02-22T01:27:17.625Z,10.06
2024-02-22T01:28:17.149Z,10.03
2024-02-22T01:29:17.093Z,10.01
2024-02-22T01:30:16.972Z,10.06
2024-02-22T01:31:16.913Z,9.98
2024-02-22T01:32:16.847Z,10.03
2024-02-22T01:33:16.828Z,9.97
2024-02-22T01:34:16.716Z,9.90
2024-02-22T01:35:16.653Z,10.06
2024-02-22T01:36:16.484Z,10.03
2024-02-22T01:37:16.386Z,10.01
2024-02-22T01:38:16.427Z,10.03
2024-02-22T01:39:16.228Z,10.00
2024-02-22T01:40:16.177Z,10.04
2024-02-22T01:41:16.185Z,9.98
2024-02-22T01:42:15.961Z,10.04
2024-02-22T01:43:28.657Z,10.00
2024-02-22T01:44:15.873Z,10.06
2024-02-22T01:45:15.709Z,10.04
2024-02-22T01:46:15.626Z,10.04
2024-02-22T01:47:15.696Z,10.08
2024-02-22T01:48:15.515Z,10.06
2024-02-22T01:49:15.447Z,10.07
2024-02-22T01:50:15.342Z,10.01
2024-02-22T01:51:15.202Z,10.10
2024-02-22T01:52:15.168Z,10.15
2024-02-22T01:53:15.073Z,10.11
2024-02-22T01:54:14.950Z,10.13
2024-02-22T01:55:14.954Z,10.11
2024-02-22T01:56:14.874Z,10.11
2024-02-22T01:57:15.149Z,10.15
2024-02-22T01:58:14.616Z,10.08
2024-02-22T01:59:14.564Z,10.10
2024-02-22T02:00:14.444Z,10.13
2024-02-22T02:01:14.472Z,10.07
2024-02-22T02:02:14.301Z,10.19
2024-02-22T02:03:14.664Z,10.18
2024-02-22T02:04:14.195Z,10.21
2024-02-22T02:05:14.116Z,10.19
2024-02-22T02:06:14.062Z,10.19
2024-02-22T02:07:14.057Z,10.23
2024-02-22T02:08:13.922Z,10.13
2024-02-22T02:09:13.686Z,10.18
2024-02-22T02:10:13.602Z,10.26
2024-02-22T02:11:13.751Z,10.16
2024-02-22T02:12:13.510Z,10.19
2024-02-22T02:13:13.351Z,10.13
2024-02-22T02:14:13.407Z,10.18
2024-02-22T02:15:13.183Z,10.21
2024-02-22T02:16:13.115Z,10.13
2024-02-22T02:17:13.058Z,10.16
2024-02-22T02:18:12.981Z,10.22
2024-02-22T02:19:12.899Z,10.21
2024-02-22T02:20:12.801Z,10.15
2024-02-22T02:21:12.670Z,10.29
2024-02-22T02:22:12.585Z,10.23
2024-02-22T02:23:12.719Z,10.22
2024-02-22T02:24:12.659Z,10.21
2024-02-22T02:25:12.332Z,10.18
2024-02-22T02:26:12.319Z,10.34
2024-02-22T02:27:12.172Z,10.31
2024-02-22T02:28:12.272Z,10.22
2024-02-22T02:29:12.126Z,10.23
2024-02-22T02:30:11.915Z,10.28
2024-02-22T02:31:11.830Z,10.28
2024-02-22T02:32:11.809Z,10.28
2024-02-22T02:33:11.801Z,10.26
2024-02-22T02:34:11.672Z,10.22
2024-02-22T02:35:11.605Z,10.36
2024-02-22T02:36:11.426Z,10.25
2024-02-22T02:37:11.321Z,10.29
2024-02-22T02:38:11.334Z,10.23
2024-02-22T02:39:11.153Z,10.36
2024-02-22T02:40:11.068Z,10.31
2024-02-22T02:41:11.096Z,10.36
2024-02-22T02:42:10.900Z,10.36
2024-02-22T02:43:10.819Z,10.33
2024-02-22T02:44:10.892Z,10.39
2024-02-22T02:45:10.657Z,10.33
2024-02-22T02:46:10.568Z,10.44
2024-02-22T02:47:10.580Z,10.37
2024-02-22T02:48:10.505Z,10.34
2024-02-22T02:49:10.408Z,10.29
2024-02-22T02:50:10.593Z,10.40
2024-02-22T02:51:10.477Z,10.33
2024-02-22T02:52:10.055Z,10.33
2024-02-22T02:53:10.140Z,10.33
2024-02-22T02:54:09.896Z,10.46
2024-02-22T02:55:09.844Z,10.46
2024-02-22T02:56:09.769Z,10.37
2024-02-22T02:57:09.636Z,10.36
2024-02-22T02:58:09.576Z,10.43
2024-02-22T02:59:09.559Z,10.40
2024-02-22T03:00:09.383Z,10.46
2024-02-22T03:01:09.346Z,10.37
2024-02-22T03:03:01.707Z,10.33
2024-02-22T03:04:01.677Z,10.37
2024-02-22T03:05:01.580Z,10.33
2024-02-22T03:06:01.688Z,10.28
2024-02-22T03:07:01.382Z,10.21
2024-02-22T03:08:01.336Z,10.39
2024-02-22T03:09:01.185Z,10.28
2024-02-22T03:10:01.129Z,10.36
2024-02-22T03:11:01.099Z,10.31
2024-02-22T03:12:01.328Z,10.37
2024-02-22T03:13:00.849Z,10.36
2024-02-22T03:14:00.836Z,10.33
2024-02-22T03:15:00.686Z,10.33
2024-02-22T03:16:00.611Z,10.34
2024-02-22T03:17:00.564Z,10.46
2024-02-22T03:18:00.473Z,10.33
2024-02-22T03:19:00.698Z,10.39
2024-02-22T03:20:00.343Z,10.46
2024-02-22T03:21:00.177Z,10.47
2024-02-22T03:22:00.139Z,10.39
2024-02-22T03:23:00.067Z,10.40
2024-02-22T03:23:59.922Z,10.41
2024-02-22T03:24:59.873Z,10.49
2024-02-22T03:25:59.847Z,10.40
2024-02-22T03:26:59.668Z,10.46
2024-02-22T03:27:59.588Z,10.41
2024-02-22T03:28:59.531Z,10.44
2024-02-22T03:29:59.412Z,10.44
2024-02-22T03:30:59.370Z,10.44
2024-02-22T03:31:59.263Z,10.37
2024-02-22T03:32:59.192Z,10.39
2024-02-22T03:33:59.130Z,10.44
2024-02-22T03:34:59.258Z,10.39
2024-02-22T03:35:59.196Z,10.43
2024-02-22T03:36:58.859Z,10.47
2024-02-22T03:37:58.830Z,10.36
2024-02-22T03:38:58.703Z,10.39
2024-02-22T03:40:58.544Z,10.40
2024-02-22T03:41:58.415Z,10.33
2024-02-22T03:42:58.343Z,10.36
2024-02-22T03:43:58.325Z,10.36
2024-02-22T03:44:58.145Z,10.39
2024-02-22T03:45:58.065Z,10.47
2024-02-22T03:46:58.029Z,10.46
2024-02-22T03:47:57.977Z,10.31
2024-02-22T03:48:57.865Z,10.34
2024-02-22T03:49:57.776Z,10.43
2024-02-22T03:50:57.644Z,10.43
2024-02-22T03:51:57.576Z,10.33
2024-02-22T03:52:57.613Z,10.41
2024-02-22T03:53:57.414Z,10.41
2024-02-22T03:54:57.328Z,10.43
2024-02-22T03:56:00.788Z,10.37
2024-02-22T03:56:57.136Z,10.34
2024-02-22T03:57:57.065Z,10.40
2024-02-22T03:58:57.032Z,10.36
2024-02-22T03:59:56.893Z,10.40
2024-02-22T04:00:56.800Z,10.47
2024-02-22T04:01:57.073Z,10.44
2024-02-22T04:02:56.631Z,10.49
2024-02-22T04:03:56.588Z,10.43
2024-02-22T04:04:56.569Z,10.44
2024-02-22T04:05:56.414Z,10.44
2024-02-22T04:06:56.298Z,10.41
2024-02-22T04:07:56.259Z,10.37
2024-02-22T04:08:56.276Z,10.56
2024-02-22T04:09:56.044Z,10.46
2024-02-22T04:10:56.066Z,10.43
2024-02-22T04:11:55.961Z,10.46
2024-02-22T04:12:55.815Z,10.41
2024-02-22T04:13:55.766Z,10.55
2024-02-22T04:14:55.621Z,10.59
2024-02-22T04:15:55.556Z,10.58
2024-02-22T04:16:55.486Z,10.59
2024-02-22T04:17:55.492Z,10.49
2024-02-22T04:18:55.406Z,10.41
2024-02-22T04:19:55.230Z,10.49
2024-02-22T04:20:55.138Z,10.49
2024-02-22T04:21:55.033Z,10.49
2024-02-22T04:22:54.950Z,10.44
2024-02-22T04:23:54.860Z,10.41
2024-02-22T04:24:55.034Z,10.41
2024-02-22T04:25:54.760Z,10.37
2024-02-22T04:26:54.638Z,10.43
2024-02-22T04:27:54.531Z,10.41
2024-02-22T04:28:54.484Z,10.43
2024-02-22T04:29:54.365Z,10.41
2024-02-22T04:30:54.290Z,10.46
2024-02-22T04:31:54.263Z,10.46
2024-02-22T04:32:54.152Z,10.40
2024-02-22T04:33:54.152Z,10.40
2024-02-22T04:34:54.009Z,10.43
2024-02-22T04:35:53.896Z,10.44
2024-02-22T04:36:53.772Z,10.44
2024-02-22T04:37:53.919Z,10.44
2024-02-22T04:38:53.690Z,10.49
2024-02-22T04:39:53.526Z,10.46
2024-02-22T04:40:53.468Z,10.29
2024-02-22T04:41:53.359Z,10.40
2024-02-22T04:42:53.299Z,10.40
2024-02-22T04:43:53.203Z,10.44
2024-02-22T04:44:53.116Z,10.33
2024-02-22T04:45:53.018Z,10.39
2024-02-22T04:46:52.945Z,10.41
2024-02-22T04:47:52.880Z,10.44
2024-02-22T04:48:52.821Z,10.46
2024-02-22T04:49:52.777Z,10.43
2024-02-22T04:50:52.600Z,10.36
2024-02-22T04:51:52.521Z,10.43
2024-02-22T04:52:52.438Z,10.39
2024-02-22T04:53:52.343Z,10.37
2024-02-22T04:54:52.257Z,10.37
2024-02-22T04:55:52.245Z,10.34
2024-02-22T04:56:52.090Z,10.37
2024-02-22T04:57:52.016Z,10.37
2024-02-22T04:58:51.998Z,10.29
2024-02-22T04:59:51.835Z,10.34
2024-02-22T05:00:51.784Z,10.37
2024-02-22T05:01:51.692Z,10.37
2024-02-22T05:02:51.602Z,10.36
2024-02-22T05:03:51.569Z,10.33
2024-02-22T05:04:51.719Z,10.26
2024-02-22T05:05:51.401Z,10.34
2024-02-22T05:06:51.244Z,10.28
2024-02-22T05:07:51.188Z,10.23
2024-02-22T05:08:51.084Z,10.31
2024-02-22T05:09:51.000Z,10.22
2024-02-22T05:10:50.965Z,10.37
2024-02-22T05:11:50.992Z,10.31
2024-02-22T05:12:50.744Z,10.34
2024-02-22T05:13:50.718Z,10.23
2024-02-22T05:14:50.592Z,10.22
2024-02-22T05:15:50.510Z,10.31
2024-02-22T05:16:50.433Z,10.26
2024-02-22T05:17:50.575Z,10.29
2024-02-22T05:18:50.302Z,10.26
2024-02-22T05:19:50.225Z,10.26
2024-02-22T05:20:50.372Z,10.22
2024-02-22T05:21:49.987Z,10.21
2024-02-22T05:22:49.915Z,10.28
2024-02-22T05:23:49.820Z,10.36
2024-02-22T05:24:49.734Z,10.34
2024-02-22T05:25:49.687Z,10.36
2024-02-22T05:26:49.564Z,10.34
2024-02-22T05:27:49.478Z,10.23
2024-02-22T05:28:49.420Z,10.29
2024-02-22T05:29:49.313Z,10.29
2024-02-22T05:30:49.253Z,10.31
2024-02-22T05:31:49.247Z,10.34
2024-02-22T05:32:49.068Z,10.25
2024-02-22T05:33:49.092Z,10.31
2024-02-22T05:34:48.908Z,10.29
2024-02-22T05:35:49.122Z,10.31
2024-02-22T05:36:48.731Z,10.23
2024-02-22T05:37:48.684Z,10.23
2024-02-22T05:38:48.556Z,10.26
2024-02-22T05:39:48.483Z,10.36
2024-02-22T05:40:48.430Z,10.25
2024-02-22T05:41:48.413Z,10.31
2024-02-22T05:42:48.219Z,10.28
2024-02-22T05:43:48.219Z,10.21
2024-02-22T05:44:48.059Z,10.34
2024-02-22T05:45:48.166Z,10.31
2024-02-22T05:46:47.984Z,10.28
2024-02-22T05:47:47.907Z,10.25
2024-02-22T05:48:47.817Z,10.26
2024-02-22T05:49:47.697Z,10.31
2024-02-22T05:50:49.516Z,10.34
2024-02-22T05:51:47.468Z,10.25
2024-02-22T05:52:47.410Z,10.33
2024-02-22T05:53:47.294Z,10.25
2024-02-22T05:54:47.221Z,10.26
2024-02-22T05:55:47.152Z,10.26
2024-02-22T05:56:47.046Z,10.19
2024-02-22T05:57:46.975Z,10.25
2024-02-22T05:58:46.900Z,10.26
2024-02-22T05:59:46.806Z,10.34
2024-02-22T06:00:46.752Z,10.34
2024-02-22T06:01:46.806Z,10.29
2024-02-22T06:02:46.658Z,10.34
2024-02-22T06:03:46.455Z,10.31
2024-02-22T06:04:46.573Z,10.26
2024-02-22T06:05:46.499Z,10.37
2024-02-22T06:06:46.228Z,10.28
2024-02-22T06:07:46.183Z,10.33
2024-02-22T06:08:46.037Z,10.36
2024-02-22T06:09:45.948Z,10.34
2024-02-22T06:10:45.987Z,10.26
2024-02-22T06:11:45.859Z,10.23
2024-02-22T06:12:45.749Z,10.28
2024-02-22T06:13:45.700Z,10.25
2024-02-22T06:14:45.531Z,10.36
2024-02-22T06:15:45.444Z,10.36
2024-02-22T06:16:45.439Z,10.37
2024-02-22T06:17:45.293Z,10.37
2024-02-22T06:18:45.364Z,10.34
2024-02-22T06:19:45.125Z,10.36
2024-02-22T06:20:45.332Z,10.37
2024-02-22T06:21:44.940Z,10.41
2024-02-22T06:22:44.910Z,10.46
2024-02-22T06:23:44.768Z,10.49
2024-02-22T06:24:44.986Z,10.36
2024-02-22T06:25:44.624Z,10.33
2024-02-22T06:26:44.517Z,10.40
2024-02-22T06:27:44.438Z,10.44
2024-02-22T06:28:44.426Z,10.36
2024-02-22T06:29:44.266Z,10.31
2024-02-22T06:30:44.252Z,10.29
2024-02-22T06:31:44.166Z,10.41
2024-02-22T06:32:44.058Z,10.46
2024-02-22T06:33:44.115Z,10.40
2024-02-22T06:34:44.142Z,10.40
2024-02-22T06:35:43.758Z,10.46
2024-02-22T06:36:43.683Z,10.39
2024-02-22T06:37:43.625Z,10.36
2024-02-22T06:38:43.504Z,10.31
2024-02-22T06:39:43.426Z,10.40
2024-02-22T06:40:43.380Z,10.46
2024-02-22T06:41:43.249Z,10.43
2024-02-22T06:42:43.172Z,10.41
2024-02-22T06:43:43.161Z,10.34
2024-02-22T06:44:42.996Z,10.40
2024-02-22T06:45:42.926Z,10.39
2024-02-22T06:46:42.836Z,10.37
2024-02-22T06:47:42.839Z,10.39
2024-02-22T06:48:42.722Z,10.41
2024-02-22T06:49:42.718Z,10.39
2024-02-22T06:50:42.566Z,10.39
2024-02-22T06:51:42.430Z,10.44
2024-02-22T06:52:42.354Z,10.43
2024-02-22T06:53:42.261Z,10.41
2024-02-22T06:54:42.157Z,10.46
2024-02-22T06:55:42.132Z,10.41
2024-02-22T06:57:41.944Z,10.40
2024-02-22T06:58:41.851Z,10.40
2024-02-22T06:59:41.752Z,10.46
2024-02-22T07:00:41.696Z,10.37
2024-02-22T07:01:41.589Z,10.37
2024-02-22T07:02:41.481Z,10.40
2024-02-22T07:03:41.568Z,10.41
2024-02-22T07:04:41.411Z,10.41
2024-02-22T07:05:41.400Z,10.46
2024-02-22T07:06:41.222Z,10.47
2024-02-22T07:07:41.107Z,10.49
2024-02-22T07:08:40.976Z,10.55
2024-02-22T07:09:40.900Z,10.58
2024-02-22T07:10:41.005Z,10.53
2024-02-22T07:11:40.799Z,10.56
2024-02-22T07:12:40.646Z,10.56
2024-02-22T07:13:40.570Z,10.46
2024-02-22T07:14:40.478Z,10.51
2024-02-22T07:15:40.405Z,10.55
2024-02-22T07:16:40.346Z,10.51
2024-02-22T07:17:40.340Z,10.51
2024-02-22T07:18:40.290Z,10.55
2024-02-22T07:19:40.136Z,10.60
2024-02-22T07:20:40.114Z,10.62
2024-02-22T07:21:39.911Z,10.60
2024-02-22T07:22:41.394Z,10.41
2024-02-22T07:23:39.768Z,10.62
2024-02-22T07:24:39.633Z,10.55
2024-02-22T07:25:39.585Z,10.53
2024-02-22T07:26:39.467Z,10.56
2024-02-22T07:27:39.385Z,10.47
2024-02-22T07:28:39.361Z,10.56
2024-02-22T07:29:39.259Z,10.51
2024-02-22T07:30:39.137Z,10.65
2024-02-22T07:31:39.070Z,10.63
2024-02-22T07:32:39.043Z,10.65
2024-02-22T07:33:38.956Z,10.71
2024-02-22T07:34:39.132Z,10.66
2024-02-22T07:35:38.765Z,10.66
2024-02-22T07:36:38.636Z,10.67
2024-02-22T07:37:38.571Z,10.65
2024-02-22T07:38:38.528Z,10.66
2024-02-22T07:39:38.375Z,10.56
2024-02-22T07:40:38.320Z,10.71
2024-02-22T07:41:38.205Z,10.66
2024-02-22T07:42:38.128Z,10.74
2024-02-22T07:43:38.139Z,10.63
2024-02-22T07:44:37.957Z,10.74
2024-02-22T07:45:37.879Z,10.63
2024-02-22T07:46:37.814Z,10.73
2024-02-22T07:47:37.743Z,10.71
2024-02-22T07:48:37.682Z,10.77
2024-02-22T07:49:37.660Z,10.71
2024-02-22T07:50:37.454Z,10.69
2024-02-22T07:51:49.481Z,10.66
2024-02-22T07:52:37.325Z,10.74
2024-02-22T07:53:37.201Z,10.73
2024-02-22T07:54:37.138Z,10.81
2024-02-22T07:55:37.048Z,10.88
2024-02-22T07:56:36.950Z,10.87
2024-02-22T07:57:36.863Z,10.83
2024-02-22T07:58:36.822Z,10.88
2024-02-22T07:59:36.696Z,10.83
2024-02-22T08:00:36.658Z,10.83
2024-02-22T08:01:36.760Z,10.85
2024-02-22T08:02:36.519Z,10.85
2024-02-22T08:03:36.361Z,10.84
2024-02-22T08:04:36.702Z,10.91
2024-02-22T08:05:36.292Z,10.88
2024-02-22T08:06:36.338Z,10.93
2024-02-22T08:07:36.239Z,10.84
2024-02-22T08:08:36.069Z,10.87
2024-02-22T08:09:35.866Z,10.93
2024-02-22T08:10:35.826Z,10.88
2024-02-22T08:11:35.918Z,10.92
2024-02-22T08:12:35.615Z,11.00
2024-02-22T08:13:35.987Z,10.88
2024-02-22T08:14:35.449Z,10.98
2024-02-22T08:15:35.357Z,10.96
2024-02-22T08:16:35.317Z,10.95
2024-02-22T08:17:35.230Z,10.96
2024-02-22T08:18:35.104Z,10.96
2024-02-22T08:19:35.080Z,11.00
2024-02-22T08:20:35.070Z,10.95
2024-02-22T08:21:34.860Z,10.96
2024-02-22T08:22:34.810Z,10.85
2024-02-22T08:23:34.689Z,10.96
2024-02-22T08:24:34.603Z,11.00
2024-02-22T08:25:34.566Z,10.95
2024-02-22T08:26:34.474Z,10.96
2024-02-22T08:27:34.673Z,10.87
2024-02-22T08:28:34.379Z,10.98
2024-02-22T08:29:34.186Z,10.93
2024-02-22T08:30:34.106Z,10.93
2024-02-22T08:31:34.063Z,10.99
2024-02-22T08:32:34.014Z,10.96
2024-02-22T08:33:34.070Z,10.93
2024-02-22T08:34:34.080Z,11.02
2024-02-22T08:35:33.832Z,10.95
2024-02-22T08:36:33.609Z,10.93
2024-02-22T08:37:33.615Z,10.93
2024-02-22T08:38:33.432Z,10.93
2024-02-22T08:39:33.597Z,10.93
2024-02-22T08:40:39.262Z,11.02
2024-02-22T08:41:33.420Z,10.99
2024-02-22T08:42:33.126Z,10.96
2024-02-22T08:43:33.051Z,10.99
2024-02-22T08:44:32.959Z,11.00
2024-02-22T08:45:32.904Z,11.02
2024-02-22T08:46:34.915Z,10.99
2024-02-22T08:47:32.865Z,11.06
2024-02-22T08:48:32.692Z,10.98
2024-02-22T08:49:32.646Z,11.03
2024-02-22T08:50:32.479Z,11.00
2024-02-22T08:51:32.366Z,11.03
2024-02-22T08:52:32.437Z,11.02
2024-02-22T08:53:32.232Z,10.98
2024-02-22T08:54:32.106Z,10.93
2024-02-22T08:55:32.021Z,11.00
2024-02-22T08:56:31.975Z,10.98
2024-02-22T08:58:31.784Z,11.03
2024-02-22T08:59:31.735Z,11.00
2024-02-22T09:00:31.753Z,11.02
2024-02-22T09:01:31.511Z,10.99
2024-02-22T09:02:31.424Z,10.99
2024-02-22T09:03:31.391Z,11.05
2024-02-22T09:04:31.266Z,11.03
2024-02-22T09:05:31.332Z,11.10
2024-02-22T09:06:31.176Z,11.06
2024-02-22T09:07:31.135Z,11.06
2024-02-22T09:08:30.936Z,11.06
2024-02-22T09:09:31.090Z,11.16
2024-02-22T09:10:30.760Z,11.11
2024-02-22T09:11:30.805Z,11.21
2024-02-22T09:12:30.593Z,11.14
2024-02-22T09:13:30.508Z,11.21
2024-02-22T09:14:31.715Z,11.21
2024-02-22T09:15:30.359Z,11.21
2024-02-22T09:16:30.258Z,11.20
2024-02-22T09:17:30.361Z,11.24
2024-02-22T09:18:30.203Z,11.18
2024-02-22T09:19:30.027Z,11.17
2024-02-22T09:20:29.963Z,11.17
2024-02-22T09:21:29.836Z,11.18
2024-02-22T09:22:29.757Z,11.21
2024-02-22T09:23:29.699Z,11.21
2024-02-22T09:24:29.593Z,11.29
2024-02-22T09:25:29.669Z,11.29
2024-02-22T09:26:29.480Z,11.35
2024-02-22T09:27:29.336Z,11.31
2024-02-22T09:28:29.256Z,11.36
2024-02-22T09:29:29.175Z,11.29
2024-02-22T09:30:29.118Z,11.34
2024-02-22T09:31:29.005Z,11.34
2024-02-22T09:32:29.144Z,11.28
2024-02-22T09:33:28.956Z,11.31
2024-02-22T09:34:28.969Z,11.34
2024-02-22T09:35:28.755Z,11.31
2024-02-22T09:36:28.593Z,11.29
2024-02-22T09:37:28.819Z,11.36
2024-02-22T09:38:28.652Z,11.31
2024-02-22T09:39:28.661Z,11.31
2024-02-22T09:40:28.263Z,11.29
2024-02-22T09:41:28.212Z,11.35
2024-02-22T09:42:28.561Z,11.32
2024-02-22T09:43:28.020Z,11.31
2024-02-22T09:44:27.984Z,11.32
2024-02-22T09:45:27.905Z,11.38
2024-02-22T09:46:28.159Z,11.41
2024-02-22T09:47:27.777Z,11.34
2024-02-22T09:48:27.646Z,11.32
2024-02-22T09:49:27.571Z,11.38
2024-02-22T09:50:27.570Z,11.35
2024-02-22T09:51:27.381Z,11.36
2024-02-22T09:52:27.272Z,11.43
2024-02-22T09:53:27.217Z,11.32
2024-02-22T09:54:27.144Z,11.43
2024-02-22T09:55:27.055Z,11.46
2024-02-22T09:56:27.005Z,11.41
2024-02-22T09:57:26.851Z,11.56
2024-02-22T09:58:26.799Z,11.54
2024-02-22T09:59:26.717Z,11.51
2024-02-22T10:00:26.629Z,11.51
2024-02-22T10:01:26.558Z,11.54
2024-02-22T10:02:26.519Z,11.53
2024-02-22T10:03:26.495Z,11.50
2024-02-22T10:04:26.268Z,11.54
2024-02-22T10:05:26.277Z,11.59
2024-02-22T10:06:26.159Z,11.56
2024-02-22T10:07:26.043Z,11.43
2024-02-22T10:08:26.069Z,11.56
2024-02-22T10:09:25.860Z,11.61
2024-02-22T10:10:25.775Z,11.46
2024-02-22T10:11:25.820Z,11.46
2024-02-22T10:12:26.891Z,11.53
2024-02-22T10:13:25.662Z,11.53
2024-02-22T10:14:25.544Z,11.53
2024-02-22T10:15:25.354Z,11.54
2024-02-22T10:16:25.275Z,11.59
2024-02-22T10:17:25.383Z,11.64
2024-02-22T10:18:25.453Z,11.64
2024-02-22T10:19:25.144Z,11.61
2024-02-22T10:20:24.995Z,11.59
2024-02-22T10:21:24.859Z,11.59
2024-02-22T10:22:24.792Z,11.57
2024-02-22T10:23:24.803Z,11.60
2024-02-22T10:24:24.609Z,11.61
2024-02-22T10:25:24.533Z,11.57
2024-02-22T10:26:24.568Z,11.51
2024-02-22T10:27:24.369Z,11.57
2024-02-22T10:28:24.281Z,11.57
2024-02-22T10:29:24.254Z,11.59
2024-02-22T10:30:24.109Z,11.54
2024-02-22T10:31:24.025Z,11.59
2024-02-22T10:32:23.961Z,11.54
2024-02-22T10:33:23.904Z,11.54
2024-02-22T10:34:23.875Z,11.56
2024-02-22T10:35:23.724Z,11.57
2024-02-22T10:36:23.621Z,11.60
2024-02-22T10:37:23.529Z,11.56
2024-02-22T10:38:23.465Z,11.59
2024-02-22T10:39:23.369Z,11.59
2024-02-22T10:40:23.338Z,11.60
2024-02-22T10:41:23.283Z,11.59
2024-02-22T10:42:23.112Z,11.53
2024-02-22T10:43:23.078Z,11.61
2024-02-22T10:44:23.025Z,11.59
2024-02-22T10:45:22.864Z,11.59
2024-02-22T10:46:24.371Z,11.69
2024-02-22T10:47:22.986Z,11.71
2024-02-22T10:48:22.716Z,11.65
2024-02-22T10:49:22.544Z,11.67
2024-02-22T10:50:22.552Z,11.67
2024-02-22T10:51:22.368Z,11.69
2024-02-22T10:52:23.964Z,11.67
2024-02-22T10:53:22.298Z,11.67
2024-02-22T10:54:22.118Z,11.68
2024-02-22T10:55:22.034Z,11.60
2024-02-22T10:56:22.032Z,11.65
2024-02-22T10:57:22.216Z,11.68
2024-02-22T10:58:23.021Z,11.64
2024-02-22T10:59:21.901Z,11.71
2024-02-22T11:00:21.628Z,11.68
2024-02-22T11:01:21.539Z,11.72
2024-02-22T11:02:21.557Z,11.69
2024-02-22T11:03:21.383Z,11.72
2024-02-22T11:04:21.419Z,11.61
2024-02-22T11:05:21.259Z,11.74
2024-02-22T11:06:21.243Z,11.71
2024-02-22T11:07:21.046Z,11.72
2024-02-22T11:08:21.000Z,11.74
2024-02-22T11:09:20.883Z,11.75
2024-02-22T11:10:20.864Z,11.79
2024-02-22T11:11:20.909Z,11.75
2024-02-22T11:12:20.666Z,11.84
2024-02-22T11:13:20.547Z,11.74
2024-02-22T11:14:20.521Z,11.89
2024-02-22T11:15:20.381Z,11.83
2024-02-22T11:16:20.301Z,11.83
2024-02-22T11:17:20.389Z,11.79
2024-02-22T11:18:20.208Z,11.81
2024-02-22T11:19:20.091Z,11.72
2024-02-22T11:20:20.057Z,11.79
2024-02-22T11:21:19.886Z,11.76
2024-02-22T11:22:22.270Z,11.79
2024-02-22T11:23:19.994Z,11.76
2024-02-22T11:24:19.666Z,11.78
2024-02-22T11:25:19.556Z,11.72
2024-02-22T11:26:19.547Z,11.76
2024-02-22T11:27:19.473Z,11.76
2024-02-22T11:28:19.314Z,11.83
2024-02-22T11:29:19.302Z,11.76
2024-02-22T11:30:19.149Z,11.79
2024-02-22T11:31:19.065Z,11.87
2024-02-22T11:32:22.394Z,11.81
2024-02-22T11:33:18.949Z,11.86
2024-02-22T11:34:18.838Z,11.86
2024-02-22T11:35:18.755Z,11.81
2024-02-22T11:36:18.642Z,11.79
2024-02-22T11:37:18.584Z,11.81
2024-02-22T11:38:18.519Z,11.83
2024-02-22T11:39:18.395Z,11.83
2024-02-22T11:40:18.314Z,11.86
2024-02-22T11:41:18.266Z,11.79
2024-02-22T11:42:18.150Z,11.78
2024-02-22T11:43:18.069Z,11.83
2024-02-22T11:44:18.060Z,11.84
2024-02-22T11:45:17.902Z,11.74
2024-02-22T11:46:17.815Z,11.78
2024-02-22T11:47:17.765Z,11.78
2024-02-22T11:48:17.759Z,11.75
2024-02-22T11:49:17.588Z,11.86
2024-02-22T11:50:17.627Z,11.79
2024-02-22T11:51:17.403Z,11.75
2024-02-22T11:52:17.320Z,11.76
2024-02-22T11:53:17.324Z,11.95
2024-02-22T11:54:17.172Z,11.95
2024-02-22T11:55:17.071Z,11.87
2024-02-22T11:56:17.116Z,11.87
2024-02-22T11:57:16.914Z,11.95
2024-02-22T11:58:16.825Z,11.95
2024-02-22T11:59:16.842Z,12.02
2024-02-22T12:00:16.663Z,11.98
2024-02-22T12:01:16.572Z,12.09
2024-02-22T12:02:16.565Z,12.12
2024-02-22T12:03:16.415Z,12.13
2024-02-22T12:04:16.530Z,12.15
2024-02-22T12:05:16.342Z,12.08
2024-02-22T12:06:16.305Z,12.19
2024-02-22T12:07:16.162Z,12.19
2024-02-22T12:08:16.036Z,12.23
2024-02-22T12:09:15.918Z,12.30
2024-02-22T12:10:15.850Z,12.19
2024-02-22T12:11:15.900Z,12.23
2024-02-22T12:12:15.719Z,12.15
2024-02-22T12:13:15.594Z,12.12
2024-02-22T12:14:15.649Z,12.23
2024-02-22T12:15:17.224Z,12.26
2024-02-22T12:16:15.371Z,12.19
2024-02-22T12:17:15.336Z,12.12
2024-02-22T12:18:15.271Z,12.15
2024-02-22T12:19:15.156Z,11.97
2024-02-22T12:20:15.041Z,12.12
2024-02-22T12:21:16.120Z,12.11
2024-02-22T12:22:14.843Z,12.11
2024-02-22T12:23:14.847Z,12.18
2024-02-22T12:24:14.684Z,12.19
2024-02-22T12:25:14.635Z,12.13
2024-02-22T12:26:14.571Z,12.12
2024-02-22T12:28:14.408Z,12.11
2024-02-22T12:29:14.333Z,12.12
2024-02-22T12:30:14.223Z,12.18
2024-02-22T12:31:14.138Z,12.13
2024-02-22T12:32:14.075Z,12.12
2024-02-22T12:33:14.006Z,12.05
2024-02-22T12:34:14.028Z,12.15
2024-02-22T12:35:13.816Z,12.09
2024-02-22T12:36:13.702Z,12.11
2024-02-22T12:37:13.609Z,12.08
2024-02-22T12:38:13.592Z,12.12
2024-02-22T12:39:13.462Z,12.15
2024-02-22T12:40:13.366Z,11.95
2024-02-22T12:41:13.642Z,11.97
2024-02-22T12:42:13.220Z,12.02
2024-02-22T12:43:13.666Z,11.95
2024-02-22T12:44:13.296Z,12.02
2024-02-22T12:45:12.953Z,11.94
2024-02-22T12:46:12.870Z,12.03
2024-02-22T12:47:12.826Z,11.97
2024-02-22T12:48:12.811Z,11.95
2024-02-22T12:49:12.666Z,11.95
2024-02-22T12:51:12.482Z,12.03
2024-02-22T12:52:12.411Z,11.95
2024-02-22T12:53:12.396Z,11.94
2024-02-22T12:54:12.209Z,11.97
2024-02-22T12:55:12.165Z,11.98
2024-02-22T12:56:12.111Z,11.97
2024-02-22T12:57:11.965Z,12.02
2024-02-22T12:58:11.904Z,11.98
2024-02-22T12:59:11.868Z,11.97
2024-02-22T13:00:11.760Z,11.98